In Rescue
 
Open Full Screen Window  High Contrast Mode
Wind Gusting 00 knots
03
January 28, 2020 11:19 PM EST
Weather Information
Wind Direction
  110 °
Wind Speed
  03 kt (3 mph)
Wind Gust
  00 kt (0 mph)
Altimeter
30.13 in
Visibility
10 SM
Temperature
-02° C
28° F
Dewpoint
-06° C
21° F
Humidity
74%
Sky Condition
Overcast @ 2,400 ft
MVFR

METAR KFKS 290419Z AUTO 11003KT 10SM OVC024 M02/M06 A3013 RMK AO2 T10211060

FAA Disclaimer: The data displayed is for advisory purposes only and is not to be used for flight planning or operations.